ELY weather

Ely Airport Yelland Field
Ely, Nevada, United States

Public forecast

Using degrees Fahrenheit for public forecast. Weather courtesy of forecast.io.

METAR (pilot weather report)

Retrieved 2019/05/19 13:28 UTC (23 minutes ago):

KELY 191328Z AUTO 17015G21KT 4SM -RA BR BKN026 OVC031 03/02 A2963

TAF (pilot weather forecast)

Retrieved 2019/05/19 12:33 UTC (1 hour ago):

TAF KELY 191131Z 1912/2012 18011KT P6SM -RASN SCT025 OVC035 TEMPO 1912/1916 18015G25KT 5SM -SHRASN SCT015 BKN025 FM191600 VRB06KT 2SM -RASN BR SCT007 BKN015 OVC025 FM200300 VRB06KT P6SM -SHSNRA BKN025 OVC035 FM200600 21006KT P6SM BKN080